sensor_id;sensor_type;location;lat;lon;timestamp;temperature;humidity
3846;DHT22;1938;50.812;7.738;2023-05-15T00:00:27;10.20;99.90
3846;DHT22;1938;50.812;7.738;2023-05-15T00:02:53;10.00;99.90
3846;DHT22;1938;50.812;7.738;2023-05-15T00:05:19;9.80;99.90
3846;DHT22;1938;50.812;7.738;2023-05-15T00:07:45;9.50;99.90
3846;DHT22;1938;50.812;7.738;2023-05-15T00:10:11;9.30;99.90
3846;DHT22;1938;50.812;7.738;2023-05-15T00:12:36;9.10;99.90
3846;DHT22;1938;50.812;7.738;2023-05-15T00:15:03;9.20;99.90
3846;DHT22;1938;50.812;7.738;2023-05-15T00:17:29;9.00;99.90
3846;DHT22;1938;50.812;7.738;2023-05-15T00:19:54;8.90;99.90
3846;DHT22;1938;50.812;7.738;2023-05-15T00:22:22;8.70;99.90
3846;DHT22;1938;50.812;7.738;2023-05-15T00:24:48;8.60;99.90
3846;DHT22;1938;50.812;7.738;2023-05-15T00:27:13;8.60;99.90
3846;DHT22;1938;50.812;7.738;2023-05-15T00:29:39;8.60;99.90
3846;DHT22;1938;50.812;7.738;2023-05-15T00:32:05;8.60;99.90
3846;DHT22;1938;50.812;7.738;2023-05-15T00:34:32;8.60;99.90
3846;DHT22;1938;50.812;7.738;2023-05-15T00:36:58;8.70;99.90
3846;DHT22;1938;50.812;7.738;2023-05-15T00:39:24;8.70;99.90
3846;DHT22;1938;50.812;7.738;2023-05-15T00:41:50;8.80;99.90
3846;DHT22;1938;50.812;7.738;2023-05-15T00:44:17;8.70;99.90
3846;DHT22;1938;50.812;7.738;2023-05-15T00:46:45;8.70;99.90
3846;DHT22;1938;50.812;7.738;2023-05-15T00:49:11;8.50;99.90
3846;DHT22;1938;50.812;7.738;2023-05-15T00:51:40;8.30;99.90
3846;DHT22;1938;50.812;7.738;2023-05-15T00:54:09;8.20;99.90
3846;DHT22;1938;50.812;7.738;2023-05-15T00:56:35;8.30;99.90
3846;DHT22;1938;50.812;7.738;2023-05-15T00:59:03;8.10;99.90
3846;DHT22;1938;50.812;7.738;2023-05-15T01:01:29;8.00;99.90
3846;DHT22;1938;50.812;7.738;2023-05-15T01:04:02;7.90;99.90
3846;DHT22;1938;50.812;7.738;2023-05-15T01:06:29;7.90;99.90
3846;DHT22;1938;50.812;7.738;2023-05-15T01:08:56;7.80;99.90
3846;DHT22;1938;50.812;7.738;2023-05-15T01:11:26;7.70;99.90
3846;DHT22;1938;50.812;7.738;2023-05-15T01:13:52;7.60;99.90
3846;DHT22;1938;50.812;7.738;2023-05-15T01:16:20;7.50;99.90
3846;DHT22;1938;50.812;7.738;2023-05-15T01:18:45;7.50;99.90
3846;DHT22;1938;50.812;7.738;2023-05-15T01:32:09;7.20;99.90
3846;DHT22;1938;50.812;7.738;2023-05-15T01:34:51;7.10;99.90
3846;DHT22;1938;50.812;7.738;2023-05-15T01:37:21;7.00;99.90
3846;DHT22;1938;50.812;7.738;2023-05-15T01:39:51;6.90;99.90
3846;DHT22;1938;50.812;7.738;2023-05-15T01:42:18;6.80;99.90
3846;DHT22;1938;50.812;7.738;2023-05-15T01:44:52;6.80;99.90
3846;DHT22;1938;50.812;7.738;2023-05-15T01:47:35;6.70;99.90
3846;DHT22;1938;50.812;7.738;2023-05-15T01:50:03;6.80;99.90
3846;DHT22;1938;50.812;7.738;2023-05-15T01:52:33;6.80;99.90
3846;DHT22;1938;50.812;7.738;2023-05-15T01:55:01;6.70;99.90
3846;DHT22;1938;50.812;7.738;2023-05-15T01:57:27;6.70;99.90
3846;DHT22;1938;50.812;7.738;2023-05-15T01:59:56;6.70;99.90
3846;DHT22;1938;50.812;7.738;2023-05-15T02:02:23;6.70;99.90
3846;DHT22;1938;50.812;7.738;2023-05-15T02:04:49;6.80;99.90
3846;DHT22;1938;50.812;7.738;2023-05-15T02:07:15;6.80;99.90
3846;DHT22;1938;50.812;7.738;2023-05-15T02:09:42;6.80;99.90
3846;DHT22;1938;50.812;7.738;2023-05-15T02:12:09;6.90;99.90
3846;DHT22;1938;50.812;7.738;2023-05-15T02:14:36;6.80;99.90
3846;DHT22;1938;50.812;7.738;2023-05-15T02:17:03;6.80;99.90
3846;DHT22;1938;50.812;7.738;2023-05-15T02:19:28;6.70;99.90
3846;DHT22;1938;50.812;7.738;2023-05-15T02:21:54;6.70;99.90
3846;DHT22;1938;50.812;7.738;2023-05-15T02:24:19;6.80;99.90
3846;DHT22;1938;50.812;7.738;2023-05-15T02:27:01;6.70;99.90
3846;DHT22;1938;50.812;7.738;2023-05-15T02:29:38;6.80;99.90
3846;DHT22;1938;50.812;7.738;2023-05-15T02:32:29;6.80;99.90
3846;DHT22;1938;50.812;7.738;2023-05-15T02:35:30;6.70;99.90
3846;DHT22;1938;50.812;7.738;2023-05-15T02:37:54;6.60;99.90
3846;DHT22;1938;50.812;7.738;2023-05-15T02:40:22;6.60;99.90
3846;DHT22;1938;50.812;7.738;2023-05-15T02:42:49;6.60;99.90
3846;DHT22;1938;50.812;7.738;2023-05-15T02:45:18;6.80;99.90
3846;DHT22;1938;50.812;7.738;2023-05-15T02:47:44;6.70;99.90
3846;DHT22;1938;50.812;7.738;2023-05-15T02:50:10;6.80;99.90
3846;DHT22;1938;50.812;7.738;2023-05-15T02:52:36;6.70;99.90
3846;DHT22;1938;50.812;7.738;2023-05-15T02:55:01;6.70;99.90
3846;DHT22;1938;50.812;7.738;2023-05-15T02:57:27;6.60;99.90
3846;DHT22;1938;50.812;7.738;2023-05-15T02:59:54;6.70;99.90
3846;DHT22;1938;50.812;7.738;2023-05-15T03:02:19;6.80;99.90
3846;DHT22;1938;50.812;7.738;2023-05-15T03:04:45;6.80;99.90
3846;DHT22;1938;50.812;7.738;2023-05-15T03:07:10;6.70;99.90
3846;DHT22;1938;50.812;7.738;2023-05-15T03:09:36;6.80;99.90
3846;DHT22;1938;50.812;7.738;2023-05-15T03:12:03;6.80;99.90
3846;DHT22;1938;50.812;7.738;2023-05-15T03:14:28;6.70;99.90
3846;DHT22;1938;50.812;7.738;2023-05-15T03:16:54;6.80;99.90
3846;DHT22;1938;50.812;7.738;2023-05-15T03:19:20;6.90;99.90
3846;DHT22;1938;50.812;7.738;2023-05-15T03:21:45;7.10;99.90
3846;DHT22;1938;50.812;7.738;2023-05-15T03:24:11;7.00;99.90
3846;DHT22;1938;50.812;7.738;2023-05-15T03:26:37;7.00;99.90
3846;DHT22;1938;50.812;7.738;2023-05-15T03:29:04;7.00;99.90
3846;DHT22;1938;50.812;7.738;2023-05-15T03:31:30;6.90;99.90
3846;DHT22;1938;50.812;7.738;2023-05-15T03:33:55;6.90;99.90
3846;DHT22;1938;50.812;7.738;2023-05-15T03:36:21;6.80;99.90
3846;DHT22;1938;50.812;7.738;2023-05-15T03:38:47;6.80;99.90
3846;DHT22;1938;50.812;7.738;2023-05-15T03:41:12;6.90;99.90
3846;DHT22;1938;50.812;7.738;2023-05-15T03:43:38;6.80;99.90
3846;DHT22;1938;50.812;7.738;2023-05-15T03:46:04;6.80;99.90
3846;DHT22;1938;50.812;7.738;2023-05-15T03:48:29;6.80;99.90
3846;DHT22;1938;50.812;7.738;2023-05-15T03:50:56;6.80;99.90
3846;DHT22;1938;50.812;7.738;2023-05-15T03:53:22;6.90;99.90
3846;DHT22;1938;50.812;7.738;2023-05-15T03:55:47;6.90;99.90
3846;DHT22;1938;50.812;7.738;2023-05-15T03:58:13;6.70;99.90
3846;DHT22;1938;50.812;7.738;2023-05-15T04:00:38;6.60;99.90
3846;DHT22;1938;50.812;7.738;2023-05-15T04:03:04;6.60;99.90
3846;DHT22;1938;50.812;7.738;2023-05-15T04:05:29;6.70;99.90
3846;DHT22;1938;50.812;7.738;2023-05-15T04:07:55;6.70;99.90
3846;DHT22;1938;50.812;7.738;2023-05-15T04:10:21;6.80;99.90
3846;DHT22;1938;50.812;7.738;2023-05-15T04:12:47;6.80;99.90
3846;DHT22;1938;50.812;7.738;2023-05-15T04:15:21;6.70;99.90
3846;DHT22;1938;50.812;7.738;2023-05-15T04:17:49;6.70;99.90
3846;DHT22;1938;50.812;7.738;2023-05-15T04:20:16;6.60;99.90
3846;DHT22;1938;50.812;7.738;2023-05-15T04:22:43;6.40;99.90
3846;DHT22;1938;50.812;7.738;2023-05-15T04:25:10;6.50;99.90
3846;DHT22;1938;50.812;7.738;2023-05-15T04:27:36;6.70;99.90
3846;DHT22;1938;50.812;7.738;2023-05-15T04:30:04;6.80;99.90
3846;DHT22;1938;50.812;7.738;2023-05-15T04:32:30;7.00;99.90
3846;DHT22;1938;50.812;7.738;2023-05-15T04:35:01;7.00;99.90
3846;DHT22;1938;50.812;7.738;2023-05-15T04:37:27;7.30;99.90
3846;DHT22;1938;50.812;7.738;2023-05-15T04:39:53;7.50;99.90
3846;DHT22;1938;50.812;7.738;2023-05-15T04:42:18;7.60;99.90
3846;DHT22;1938;50.812;7.738;2023-05-15T04:44:44;7.70;99.90
3846;DHT22;1938;50.812;7.738;2023-05-15T04:47:10;7.70;99.90
3846;DHT22;1938;50.812;7.738;2023-05-15T04:49:36;7.60;99.90
3846;DHT22;1938;50.812;7.738;2023-05-15T04:52:01;7.50;99.90
3846;DHT22;1938;50.812;7.738;2023-05-15T04:54:27;7.40;99.90
3846;DHT22;1938;50.812;7.738;2023-05-15T04:56:53;7.50;99.90
3846;DHT22;1938;50.812;7.738;2023-05-15T04:59:18;7.60;99.90
3846;DHT22;1938;50.812;7.738;2023-05-15T05:01:44;7.50;99.90
3846;DHT22;1938;50.812;7.738;2023-05-15T05:04:09;7.80;99.90
3846;DHT22;1938;50.812;7.738;2023-05-15T05:06:35;7.50;99.90
3846;DHT22;1938;50.812;7.738;2023-05-15T05:09:00;7.60;99.90
3846;DHT22;1938;50.812;7.738;2023-05-15T05:11:26;7.40;99.90
3846;DHT22;1938;50.812;7.738;2023-05-15T05:13:52;7.30;99.90
3846;DHT22;1938;50.812;7.738;2023-05-15T05:16:17;7.40;99.90
3846;DHT22;1938;50.812;7.738;2023-05-15T05:18:43;7.40;99.90
3846;DHT22;1938;50.812;7.738;2023-05-15T05:21:08;7.40;99.90
3846;DHT22;1938;50.812;7.738;2023-05-15T05:23:34;7.40;99.90
3846;DHT22;1938;50.812;7.738;2023-05-15T05:25:59;7.50;99.90
3846;DHT22;1938;50.812;7.738;2023-05-15T05:28:25;7.50;99.90
3846;DHT22;1938;50.812;7.738;2023-05-15T05:30:51;7.40;99.90
3846;DHT22;1938;50.812;7.738;2023-05-15T05:33:16;7.60;99.90
3846;DHT22;1938;50.812;7.738;2023-05-15T05:35:42;7.60;99.90
3846;DHT22;1938;50.812;7.738;2023-05-15T05:38:07;7.60;99.90
3846;DHT22;1938;50.812;7.738;2023-05-15T05:40:33;7.70;99.90
3846;DHT22;1938;50.812;7.738;2023-05-15T05:43:00;7.70;99.90
3846;DHT22;1938;50.812;7.738;2023-05-15T05:45:26;7.80;99.90
3846;DHT22;1938;50.812;7.738;2023-05-15T05:47:53;7.90;99.90
3846;DHT22;1938;50.812;7.738;2023-05-15T05:50:19;8.00;99.90
3846;DHT22;1938;50.812;7.738;2023-05-15T05:52:44;8.00;99.90
3846;DHT22;1938;50.812;7.738;2023-05-15T05:55:10;8.20;99.90
3846;DHT22;1938;50.812;7.738;2023-05-15T05:57:35;8.50;99.90
3846;DHT22;1938;50.812;7.738;2023-05-15T06:00:01;8.80;99.90
3846;DHT22;1938;50.812;7.738;2023-05-15T06:02:28;9.10;99.90
3846;DHT22;1938;50.812;7.738;2023-05-15T06:04:53;9.30;99.90
3846;DHT22;1938;50.812;7.738;2023-05-15T06:07:19;9.60;99.90
3846;DHT22;1938;50.812;7.738;2023-05-15T06:09:44;9.80;99.90
3846;DHT22;1938;50.812;7.738;2023-05-15T06:12:12;10.00;99.90
3846;DHT22;1938;50.812;7.738;2023-05-15T06:14:38;10.20;99.90
3846;DHT22;1938;50.812;7.738;2023-05-15T06:17:03;10.40;99.90
3846;DHT22;1938;50.812;7.738;2023-05-15T06:19:29;10.60;99.90
3846;DHT22;1938;50.812;7.738;2023-05-15T06:21:54;10.80;99.90
3846;DHT22;1938;50.812;7.738;2023-05-15T06:24:20;10.90;99.90
3846;DHT22;1938;50.812;7.738;2023-05-15T06:26:46;11.00;99.90
3846;DHT22;1938;50.812;7.738;2023-05-15T06:29:11;11.00;99.90
3846;DHT22;1938;50.812;7.738;2023-05-15T06:31:37;11.00;99.90
3846;DHT22;1938;50.812;7.738;2023-05-15T06:34:02;11.10;99.90
3846;DHT22;1938;50.812;7.738;2023-05-15T06:36:29;11.10;99.90
3846;DHT22;1938;50.812;7.738;2023-05-15T06:38:54;11.20;99.90
3846;DHT22;1938;50.812;7.738;2023-05-15T06:41:20;11.30;99.90
3846;DHT22;1938;50.812;7.738;2023-05-15T06:43:45;11.30;99.90
3846;DHT22;1938;50.812;7.738;2023-05-15T06:46:11;11.40;99.90
3846;DHT22;1938;50.812;7.738;2023-05-15T06:48:40;11.40;99.90
3846;DHT22;1938;50.812;7.738;2023-05-15T06:51:05;11.40;99.90
3846;DHT22;1938;50.812;7.738;2023-05-15T06:53:31;11.50;99.90
3846;DHT22;1938;50.812;7.738;2023-05-15T06:55:57;11.50;99.90
3846;DHT22;1938;50.812;7.738;2023-05-15T06:58:23;11.40;99.90
3846;DHT22;1938;50.812;7.738;2023-05-15T07:00:48;11.50;99.90
3846;DHT22;1938;50.812;7.738;2023-05-15T07:03:14;11.60;99.90
3846;DHT22;1938;50.812;7.738;2023-05-15T07:05:41;11.70;99.90
3846;DHT22;1938;50.812;7.738;2023-05-15T07:08:06;11.90;99.90
3846;DHT22;1938;50.812;7.738;2023-05-15T07:10:33;11.20;99.90
3846;DHT22;1938;50.812;7.738;2023-05-15T07:12:58;10.90;99.90
3846;DHT22;1938;50.812;7.738;2023-05-15T07:15:24;10.90;99.90
3846;DHT22;1938;50.812;7.738;2023-05-15T07:17:50;10.60;99.90
3846;DHT22;1938;50.812;7.738;2023-05-15T07:20:15;10.60;99.90
3846;DHT22;1938;50.812;7.738;2023-05-15T07:22:41;10.70;99.90
3846;DHT22;1938;50.812;7.738;2023-05-15T07:25:07;10.70;99.90
3846;DHT22;1938;50.812;7.738;2023-05-15T07:27:32;10.70;99.90
3846;DHT22;1938;50.812;7.738;2023-05-15T07:29:58;10.80;99.90
3846;DHT22;1938;50.812;7.738;2023-05-15T07:32:23;10.80;99.90
3846;DHT22;1938;50.812;7.738;2023-05-15T07:34:49;10.90;99.90
3846;DHT22;1938;50.812;7.738;2023-05-15T07:37:15;10.80;99.90
3846;DHT22;1938;50.812;7.738;2023-05-15T07:39:40;10.80;99.90
3846;DHT22;1938;50.812;7.738;2023-05-15T07:42:06;11.00;99.90
3846;DHT22;1938;50.812;7.738;2023-05-15T07:44:32;11.00;99.90
3846;DHT22;1938;50.812;7.738;2023-05-15T07:46:58;11.00;99.90
3846;DHT22;1938;50.812;7.738;2023-05-15T07:49:23;11.10;99.90
3846;DHT22;1938;50.812;7.738;2023-05-15T07:51:49;11.10;99.90
3846;DHT22;1938;50.812;7.738;2023-05-15T07:54:14;11.20;99.90
3846;DHT22;1938;50.812;7.738;2023-05-15T07:56:40;11.50;99.90
3846;DHT22;1938;50.812;7.738;2023-05-15T07:59:05;11.60;99.90
3846;DHT22;1938;50.812;7.738;2023-05-15T08:01:31;11.60;99.90
3846;DHT22;1938;50.812;7.738;2023-05-15T08:03:57;11.60;99.90
3846;DHT22;1938;50.812;7.738;2023-05-15T08:06:23;11.70;99.90
3846;DHT22;1938;50.812;7.738;2023-05-15T08:08:48;11.80;99.90
3846;DHT22;1938;50.812;7.738;2023-05-15T08:11:14;11.80;99.90
3846;DHT22;1938;50.812;7.738;2023-05-15T08:13:39;12.00;99.90
3846;DHT22;1938;50.812;7.738;2023-05-15T08:16:05;12.00;99.90
3846;DHT22;1938;50.812;7.738;2023-05-15T08:18:30;12.00;99.90
3846;DHT22;1938;50.812;7.738;2023-05-15T08:20:56;11.80;99.90
3846;DHT22;1938;50.812;7.738;2023-05-15T08:23:21;11.90;99.90
3846;DHT22;1938;50.812;7.738;2023-05-15T08:25:47;11.90;99.90
3846;DHT22;1938;50.812;7.738;2023-05-15T08:28:12;12.00;99.90
3846;DHT22;1938;50.812;7.738;2023-05-15T08:30:38;12.00;99.90
3846;DHT22;1938;50.812;7.738;2023-05-15T08:33:03;12.00;99.90
3846;DHT22;1938;50.812;7.738;2023-05-15T08:35:29;12.10;99.90
3846;DHT22;1938;50.812;7.738;2023-05-15T08:37:56;12.20;99.90
3846;DHT22;1938;50.812;7.738;2023-05-15T08:40:21;12.20;99.90
3846;DHT22;1938;50.812;7.738;2023-05-15T08:42:50;12.40;99.90
3846;DHT22;1938;50.812;7.738;2023-05-15T08:45:17;12.60;99.90
3846;DHT22;1938;50.812;7.738;2023-05-15T08:47:43;12.80;99.90
3846;DHT22;1938;50.812;7.738;2023-05-15T08:50:10;12.80;99.90
3846;DHT22;1938;50.812;7.738;2023-05-15T08:52:45;12.80;99.90
3846;DHT22;1938;50.812;7.738;2023-05-15T08:55:12;13.00;99.90
3846;DHT22;1938;50.812;7.738;2023-05-15T08:57:39;12.90;99.90
3846;DHT22;1938;50.812;7.738;2023-05-15T09:00:05;13.10;99.90
3846;DHT22;1938;50.812;7.738;2023-05-15T09:02:36;13.40;99.90
3846;DHT22;1938;50.812;7.738;2023-05-15T09:05:02;13.80;99.90
3846;DHT22;1938;50.812;7.738;2023-05-15T09:07:32;14.10;99.90
3846;DHT22;1938;50.812;7.738;2023-05-15T09:09:58;14.50;99.90
3846;DHT22;1938;50.812;7.738;2023-05-15T09:12:26;15.10;99.90
3846;DHT22;1938;50.812;7.738;2023-05-15T09:15:15;15.60;99.90
3846;DHT22;1938;50.812;7.738;2023-05-15T09:17:42;16.00;99.90
3846;DHT22;1938;50.812;7.738;2023-05-15T09:20:31;16.20;99.90
3846;DHT22;1938;50.812;7.738;2023-05-15T09:22:59;16.30;99.90
3846;DHT22;1938;50.812;7.738;2023-05-15T09:25:36;16.50;99.90
3846;DHT22;1938;50.812;7.738;2023-05-15T09:28:02;17.10;99.90
3846;DHT22;1938;50.812;7.738;2023-05-15T09:30:28;17.70;99.90
3846;DHT22;1938;50.812;7.738;2023-05-15T09:32:59;18.20;99.90
3846;DHT22;1938;50.812;7.738;2023-05-15T09:35:34;18.70;99.90
3846;DHT22;1938;50.812;7.738;2023-05-15T09:38:00;19.20;99.90
3846;DHT22;1938;50.812;7.738;2023-05-15T09:40:30;19.70;99.90
3846;DHT22;1938;50.812;7.738;2023-05-15T09:42:57;20.10;99.90
3846;DHT22;1938;50.812;7.738;2023-05-15T09:45:23;20.60;99.90
3846;DHT22;1938;50.812;7.738;2023-05-15T09:47:54;20.90;99.90
3846;DHT22;1938;50.812;7.738;2023-05-15T09:50:22;21.10;99.90
3846;DHT22;1938;50.812;7.738;2023-05-15T09:52:49;21.00;99.90
3846;DHT22;1938;50.812;7.738;2023-05-15T09:55:15;21.10;99.90
3846;DHT22;1938;50.812;7.738;2023-05-15T09:57:42;20.90;99.90
3846;DHT22;1938;50.812;7.738;2023-05-15T10:00:08;21.10;99.90
3846;DHT22;1938;50.812;7.738;2023-05-15T10:02:39;21.30;99.90
3846;DHT22;1938;50.812;7.738;2023-05-15T10:05:06;21.40;99.90
3846;DHT22;1938;50.812;7.738;2023-05-15T10:07:35;21.40;99.90
3846;DHT22;1938;50.812;7.738;2023-05-15T10:10:03;21.40;99.90
3846;DHT22;1938;50.812;7.738;2023-05-15T10:12:30;21.20;99.90
3846;DHT22;1938;50.812;7.738;2023-05-15T10:14:57;21.20;99.90
3846;DHT22;1938;50.812;7.738;2023-05-15T10:17:23;21.20;99.90
3846;DHT22;1938;50.812;7.738;2023-05-15T10:19:50;21.10;99.90
3846;DHT22;1938;50.812;7.738;2023-05-15T10:22:21;21.10;99.90
3846;DHT22;1938;50.812;7.738;2023-05-15T10:24:59;21.30;99.90
3846;DHT22;1938;50.812;7.738;2023-05-15T10:27:25;21.50;99.90
3846;DHT22;1938;50.812;7.738;2023-05-15T10:29:51;21.60;99.90
3846;DHT22;1938;50.812;7.738;2023-05-15T10:32:17;21.50;99.90
3846;DHT22;1938;50.812;7.738;2023-05-15T10:34:43;21.40;99.90
3846;DHT22;1938;50.812;7.738;2023-05-15T10:37:10;21.10;99.90
3846;DHT22;1938;50.812;7.738;2023-05-15T10:39:37;21.10;99.90
3846;DHT22;1938;50.812;7.738;2023-05-15T10:42:05;20.90;99.90
3846;DHT22;1938;50.812;7.738;2023-05-15T10:44:32;20.80;99.90
3846;DHT22;1938;50.812;7.738;2023-05-15T10:46:58;20.70;99.90
3846;DHT22;1938;50.812;7.738;2023-05-15T10:49:24;20.80;99.90
3846;DHT22;1938;50.812;7.738;2023-05-15T10:51:51;20.90;99.90
3846;DHT22;1938;50.812;7.738;2023-05-15T10:54:17;21.00;99.90
3846;DHT22;1938;50.812;7.738;2023-05-15T10:56:42;20.80;99.90
3846;DHT22;1938;50.812;7.738;2023-05-15T10:59:10;20.70;99.90
3846;DHT22;1938;50.812;7.738;2023-05-15T11:01:39;20.40;99.90
3846;DHT22;1938;50.812;7.738;2023-05-15T11:04:18;20.40;99.90
3846;DHT22;1938;50.812;7.738;2023-05-15T11:06:48;20.30;99.90
3846;DHT22;1938;50.812;7.738;2023-05-15T11:11:55;20.10;99.90
3846;DHT22;1938;50.812;7.738;2023-05-15T11:14:25;20.10;99.90
3846;DHT22;1938;50.812;7.738;2023-05-15T11:16:56;20.00;99.90
3846;DHT22;1938;50.812;7.738;2023-05-15T11:27:03;19.90;55.60
3846;DHT22;1938;50.812;7.738;2023-05-15T11:29:29;20.10;99.90
3846;DHT22;1938;50.812;7.738;2023-05-15T11:31:55;20.30;99.90
3846;DHT22;1938;50.812;7.738;2023-05-15T11:34:36;20.30;6.70
3846;DHT22;1938;50.812;7.738;2023-05-15T11:37:11;20.30;1.00
3846;DHT22;1938;50.812;7.738;2023-05-15T11:39:43;20.40;1.00
3846;DHT22;1938;50.812;7.738;2023-05-15T11:42:12;20.30;99.90
3846;DHT22;1938;50.812;7.738;2023-05-15T11:44:38;20.20;99.90
3846;DHT22;1938;50.812;7.738;2023-05-15T11:47:08;20.30;99.90
3846;DHT22;1938;50.812;7.738;2023-05-15T11:49:34;20.40;99.90
3846;DHT22;1938;50.812;7.738;2023-05-15T11:52:01;20.40;99.90
3846;DHT22;1938;50.812;7.738;2023-05-15T11:54:28;20.30;1.00
3846;DHT22;1938;50.812;7.738;2023-05-15T11:56:56;20.10;1.00
3846;DHT22;1938;50.812;7.738;2023-05-15T11:59:25;20.10;1.00
3846;DHT22;1938;50.812;7.738;2023-05-15T12:01:51;20.00;1.00
3846;DHT22;1938;50.812;7.738;2023-05-15T12:04:18;20.20;99.90
3846;DHT22;1938;50.812;7.738;2023-05-15T12:06:44;20.30;99.90
3846;DHT22;1938;50.812;7.738;2023-05-15T12:09:15;20.40;99.90
3846;DHT22;1938;50.812;7.738;2023-05-15T12:11:50;20.50;65.40
3846;DHT22;1938;50.812;7.738;2023-05-15T12:14:15;20.50;1.00
3846;DHT22;1938;50.812;7.738;2023-05-15T12:16:41;20.60;99.90
3846;DHT22;1938;50.812;7.738;2023-05-15T12:19:06;20.80;1.00
3846;DHT22;1938;50.812;7.738;2023-05-15T12:21:32;20.60;99.90
3846;DHT22;1938;50.812;7.738;2023-05-15T12:23:58;20.60;99.90
3846;DHT22;1938;50.812;7.738;2023-05-15T12:26:24;20.70;99.90
3846;DHT22;1938;50.812;7.738;2023-05-15T12:28:51;20.80;99.90
3846;DHT22;1938;50.812;7.738;2023-05-15T12:31:18;20.90;99.90
3846;DHT22;1938;50.812;7.738;2023-05-15T12:33:44;21.00;99.90
3846;DHT22;1938;50.812;7.738;2023-05-15T12:36:10;21.10;99.90
3846;DHT22;1938;50.812;7.738;2023-05-15T12:38:36;21.20;63.80
3846;DHT22;1938;50.812;7.738;2023-05-15T12:41:01;21.20;69.40
3846;DHT22;1938;50.812;7.738;2023-05-15T12:43:27;21.40;55.50
3846;DHT22;1938;50.812;7.738;2023-05-15T12:45:56;21.30;10.00
3846;DHT22;1938;50.812;7.738;2023-05-15T12:48:22;21.40;1.00
3846;DHT22;1938;50.812;7.738;2023-05-15T12:50:47;21.50;1.00
3846;DHT22;1938;50.812;7.738;2023-05-15T12:53:14;21.70;38.00
3846;DHT22;1938;50.812;7.738;2023-05-15T12:55:41;21.90;1.00
3846;DHT22;1938;50.812;7.738;2023-05-15T12:58:10;22.00;1.00
3846;DHT22;1938;50.812;7.738;2023-05-15T13:00:37;22.10;1.00
3846;DHT22;1938;50.812;7.738;2023-05-15T13:03:03;22.20;1.00
3846;DHT22;1938;50.812;7.738;2023-05-15T13:05:33;22.20;1.00
3846;DHT22;1938;50.812;7.738;2023-05-15T13:08:01;22.20;99.90
3846;DHT22;1938;50.812;7.738;2023-05-15T13:10:27;22.30;99.90
3846;DHT22;1938;50.812;7.738;2023-05-15T13:12:55;22.20;99.90
3846;DHT22;1938;50.812;7.738;2023-05-15T13:15:40;22.10;99.90
3846;DHT22;1938;50.812;7.738;2023-05-15T13:18:10;22.00;99.90
3846;DHT22;1938;50.812;7.738;2023-05-15T13:20:48;22.00;99.90
3846;DHT22;1938;50.812;7.738;2023-05-15T13:23:18;22.30;99.90
3846;DHT22;1938;50.812;7.738;2023-05-15T13:25:44;22.50;99.90
3846;DHT22;1938;50.812;7.738;2023-05-15T13:28:10;22.50;99.90
3846;DHT22;1938;50.812;7.738;2023-05-15T13:30:37;22.70;99.90
3846;DHT22;1938;50.812;7.738;2023-05-15T13:33:09;22.80;99.90
3846;DHT22;1938;50.812;7.738;2023-05-15T13:35:36;22.80;99.90
3846;DHT22;1938;50.812;7.738;2023-05-15T13:38:02;22.90;99.90
3846;DHT22;1938;50.812;7.738;2023-05-15T13:40:28;23.00;99.90
3846;DHT22;1938;50.812;7.738;2023-05-15T13:42:56;22.90;54.30
3846;DHT22;1938;50.812;7.738;2023-05-15T13:45:22;22.80;23.30
3846;DHT22;1938;50.812;7.738;2023-05-15T13:47:47;22.60;2.20
3846;DHT22;1938;50.812;7.738;2023-05-15T13:50:14;22.50;1.00
3846;DHT22;1938;50.812;7.738;2023-05-15T13:52:41;22.20;1.00
3846;DHT22;1938;50.812;7.738;2023-05-15T13:55:07;22.00;1.00
3846;DHT22;1938;50.812;7.738;2023-05-15T13:57:35;21.60;1.00
3846;DHT22;1938;50.812;7.738;2023-05-15T14:00:01;21.50;1.00
3846;DHT22;1938;50.812;7.738;2023-05-15T14:02:29;21.50;1.00
3846;DHT22;1938;50.812;7.738;2023-05-15T14:04:55;21.50;99.90
3846;DHT22;1938;50.812;7.738;2023-05-15T14:07:21;21.40;99.90
3846;DHT22;1938;50.812;7.738;2023-05-15T14:09:47;21.10;99.90
3846;DHT22;1938;50.812;7.738;2023-05-15T14:12:13;21.10;99.90
3846;DHT22;1938;50.812;7.738;2023-05-15T14:14:38;21.10;99.90
3846;DHT22;1938;50.812;7.738;2023-05-15T14:17:04;21.10;99.90
3846;DHT22;1938;50.812;7.738;2023-05-15T14:19:30;21.10;99.90
3846;DHT22;1938;50.812;7.738;2023-05-15T14:21:55;20.90;99.90
3846;DHT22;1938;50.812;7.738;2023-05-15T14:24:21;20.80;99.90
3846;DHT22;1938;50.812;7.738;2023-05-15T14:26:46;20.80;99.90
3846;DHT22;1938;50.812;7.738;2023-05-15T14:29:12;20.70;99.90
3846;DHT22;1938;50.812;7.738;2023-05-15T14:31:39;20.80;99.90
3846;DHT22;1938;50.812;7.738;2023-05-15T14:34:04;21.00;99.90
3846;DHT22;1938;50.812;7.738;2023-05-15T14:36:30;21.30;99.90
3846;DHT22;1938;50.812;7.738;2023-05-15T14:38:56;21.50;99.90
3846;DHT22;1938;50.812;7.738;2023-05-15T14:41:21;21.70;99.90
3846;DHT22;1938;50.812;7.738;2023-05-15T14:43:47;21.70;99.90
3846;DHT22;1938;50.812;7.738;2023-05-15T14:46:12;21.80;99.90
3846;DHT22;1938;50.812;7.738;2023-05-15T14:48:39;21.60;99.90
3846;DHT22;1938;50.812;7.738;2023-05-15T14:51:04;21.20;99.90
3846;DHT22;1938;50.812;7.738;2023-05-15T14:53:30;21.10;99.80
3846;DHT22;1938;50.812;7.738;2023-05-15T14:55:56;20.60;59.10
3846;DHT22;1938;50.812;7.738;2023-05-15T14:58:23;20.20;29.80
3846;DHT22;1938;50.812;7.738;2023-05-15T15:00:48;19.90;11.90
3846;DHT22;1938;50.812;7.738;2023-05-15T15:03:14;19.20;1.00
3846;DHT22;1938;50.812;7.738;2023-05-15T15:05:39;19.40;1.00
3846;DHT22;1938;50.812;7.738;2023-05-15T15:08:07;19.60;1.00
3846;DHT22;1938;50.812;7.738;2023-05-15T15:10:34;19.20;1.00
3846;DHT22;1938;50.812;7.738;2023-05-15T15:13:00;19.20;1.00
3846;DHT22;1938;50.812;7.738;2023-05-15T15:15:26;19.30;1.00
3846;DHT22;1938;50.812;7.738;2023-05-15T15:17:52;18.90;1.00
3846;DHT22;1938;50.812;7.738;2023-05-15T15:20:18;17.80;1.00
3846;DHT22;1938;50.812;7.738;2023-05-15T15:22:45;17.40;1.00
3846;DHT22;1938;50.812;7.738;2023-05-15T15:25:11;17.50;1.00
3846;DHT22;1938;50.812;7.738;2023-05-15T15:27:37;17.70;1.00
3846;DHT22;1938;50.812;7.738;2023-05-15T15:30:03;18.00;1.00
3846;DHT22;1938;50.812;7.738;2023-05-15T15:32:29;18.30;1.00
3846;DHT22;1938;50.812;7.738;2023-05-15T15:34:55;18.60;1.00
3846;DHT22;1938;50.812;7.738;2023-05-15T15:37:21;18.80;1.00
3846;DHT22;1938;50.812;7.738;2023-05-15T15:39:47;19.00;1.00
3846;DHT22;1938;50.812;7.738;2023-05-15T15:42:12;19.20;1.00
3846;DHT22;1938;50.812;7.738;2023-05-15T15:44:38;19.40;1.00
3846;DHT22;1938;50.812;7.738;2023-05-15T15:47:04;19.60;1.00
3846;DHT22;1938;50.812;7.738;2023-05-15T15:49:30;19.70;1.00
3846;DHT22;1938;50.812;7.738;2023-05-15T15:51:56;19.70;1.00
3846;DHT22;1938;50.812;7.738;2023-05-15T15:54:21;19.70;1.00
3846;DHT22;1938;50.812;7.738;2023-05-15T15:56:47;19.80;1.00
3846;DHT22;1938;50.812;7.738;2023-05-15T15:59:13;19.90;1.00
3846;DHT22;1938;50.812;7.738;2023-05-15T16:01:40;20.00;99.90
3846;DHT22;1938;50.812;7.738;2023-05-15T16:04:06;20.00;99.90
3846;DHT22;1938;50.812;7.738;2023-05-15T16:06:32;20.00;99.90
3846;DHT22;1938;50.812;7.738;2023-05-15T16:08:59;20.00;99.90
3846;DHT22;1938;50.812;7.738;2023-05-15T16:11:24;20.00;99.90
3846;DHT22;1938;50.812;7.738;2023-05-15T16:13:50;20.10;99.90
3846;DHT22;1938;50.812;7.738;2023-05-15T16:16:16;20.30;99.90
3846;DHT22;1938;50.812;7.738;2023-05-15T16:18:42;20.40;99.90
3846;DHT22;1938;50.812;7.738;2023-05-15T16:21:09;20.40;99.90
3846;DHT22;1938;50.812;7.738;2023-05-15T16:23:37;20.30;99.90
3846;DHT22;1938;50.812;7.738;2023-05-15T16:26:06;20.30;99.90
3846;DHT22;1938;50.812;7.738;2023-05-15T16:28:33;20.30;99.90